createdAt,value
2022-10-26T00:01:56.165Z,26.20
2022-10-26T00:04:22.597Z,26.85
2022-10-26T00:06:48.964Z,25.23
2022-10-26T00:09:15.342Z,32.95
2022-10-26T00:11:41.676Z,32.35
2022-10-26T00:14:08.050Z,28.23
2022-10-26T00:16:37.396Z,29.05
2022-10-26T00:19:03.766Z,25.33
2022-10-26T00:21:30.216Z,30.65
2022-10-26T00:23:56.567Z,26.58
2022-10-26T00:26:22.977Z,30.52
2022-10-26T00:28:53.132Z,31.00
2022-10-26T00:31:22.995Z,28.05
2022-10-26T00:33:53.946Z,30.50
2022-10-26T00:36:20.856Z,32.80
2022-10-26T00:38:54.933Z,32.72
2022-10-26T00:41:23.954Z,26.50
2022-10-26T00:43:50.697Z,29.65
2022-10-26T00:46:22.043Z,30.45
2022-10-26T00:48:56.025Z,32.30
2022-10-26T00:51:27.480Z,37.25
2022-10-26T00:53:55.023Z,27.48
2022-10-26T00:56:21.662Z,29.42
2022-10-26T00:58:48.530Z,29.65
2022-10-26T01:01:15.556Z,26.20
2022-10-26T01:03:43.059Z,27.92
2022-10-26T01:06:11.613Z,32.97
2022-10-26T01:08:38.822Z,25.67
2022-10-26T01:11:06.027Z,24.98
2022-10-26T01:13:36.993Z,25.08
2022-10-26T01:16:25.855Z,31.30
2022-10-26T01:18:55.288Z,24.48
2022-10-26T01:21:43.500Z,31.87
2022-10-26T01:24:09.939Z,27.42
2022-10-26T01:26:42.190Z,25.95
2022-10-26T01:29:28.912Z,29.83
2022-10-26T01:32:11.708Z,27.20
2022-10-26T01:34:47.206Z,28.52
2022-10-26T01:37:37.282Z,27.45
2022-10-26T01:40:14.601Z,29.25
2022-10-26T01:42:44.639Z,26.67
2022-10-26T01:45:14.723Z,26.38
2022-10-26T01:47:41.808Z,31.50
2022-10-26T01:50:10.027Z,28.10
2022-10-26T01:52:36.495Z,28.20
2022-10-26T01:55:07.537Z,30.95
2022-10-26T01:57:36.902Z,32.50
2022-10-26T02:00:03.502Z,26.03
2022-10-26T02:02:46.074Z,32.05
2022-10-26T02:05:31.329Z,28.17
2022-10-26T02:08:39.009Z,32.60
2022-10-26T02:11:17.419Z,25.65
2022-10-26T02:13:52.530Z,27.58
2022-10-26T02:16:25.698Z,33.63
2022-10-26T02:19:05.693Z,36.15
2022-10-26T02:21:41.338Z,29.00
2022-10-26T02:24:12.423Z,32.15
2022-10-26T02:26:41.629Z,27.17
2022-10-26T02:29:11.368Z,33.92
2022-10-26T02:31:40.540Z,27.45
2022-10-26T02:34:10.891Z,30.05
2022-10-26T02:36:42.242Z,31.05
2022-10-26T02:39:11.135Z,34.53
2022-10-26T02:41:40.492Z,32.50
2022-10-26T02:44:24.890Z,31.93
2022-10-26T02:46:52.324Z,27.90
2022-10-26T02:49:19.645Z,32.83
2022-10-26T02:52:09.169Z,30.20
2022-10-26T02:54:48.540Z,28.65
2022-10-26T02:57:41.882Z,27.97
2022-10-26T03:00:12.148Z,34.25
2022-10-26T03:05:13.231Z,27.35
2022-10-26T03:07:39.616Z,29.73
2022-10-26T03:10:06.645Z,28.85
2022-10-26T03:12:33.022Z,35.40
2022-10-26T03:14:59.359Z,34.58
2022-10-26T03:17:25.795Z,31.73
2022-10-26T03:19:52.234Z,30.80
2022-10-26T03:22:18.635Z,37.70
2022-10-26T03:24:46.152Z,30.67
2022-10-26T03:27:12.522Z,31.15
2022-10-26T03:29:38.982Z,34.13
2022-10-26T03:32:05.942Z,37.28
2022-10-26T03:34:32.424Z,31.38
2022-10-26T03:36:58.871Z,32.05
2022-10-26T03:39:25.339Z,34.17
2022-10-26T03:41:51.793Z,32.97
2022-10-26T03:44:18.259Z,35.50
2022-10-26T03:46:44.799Z,34.83
2022-10-26T03:49:11.261Z,32.65
2022-10-26T03:51:37.790Z,35.78
2022-10-26T03:54:04.883Z,34.13
2022-10-26T03:56:31.363Z,34.97
2022-10-26T03:58:58.053Z,35.83
2022-10-26T04:01:24.519Z,33.25
2022-10-26T04:03:50.951Z,42.45
2022-10-26T04:06:17.513Z,38.22
2022-10-26T04:08:43.877Z,41.92
2022-10-26T04:11:10.271Z,44.17
2022-10-26T04:13:36.719Z,37.70
2022-10-26T04:16:03.127Z,33.58
2022-10-26T04:18:29.489Z,38.42
2022-10-26T04:20:55.895Z,35.00
2022-10-26T04:23:22.478Z,35.03
2022-10-26T04:25:48.867Z,37.28
2022-10-26T04:28:15.301Z,36.75
2022-10-26T04:30:41.938Z,33.92
2022-10-26T04:33:08.478Z,36.40
2022-10-26T04:35:35.243Z,40.80
2022-10-26T04:38:03.792Z,38.88
2022-10-26T04:40:31.391Z,39.85
2022-10-26T04:42:57.800Z,43.30
2022-10-26T04:45:24.538Z,34.97
2022-10-26T04:48:02.508Z,39.15
2022-10-26T04:50:29.003Z,37.88
2022-10-26T04:52:55.396Z,40.10
2022-10-26T04:55:21.880Z,40.75
2022-10-26T04:57:48.579Z,46.97
2022-10-26T05:00:15.356Z,37.25
2022-10-26T05:02:41.734Z,41.97
2022-10-26T05:05:11.214Z,45.33
2022-10-26T05:07:40.551Z,49.55
2022-10-26T05:10:08.034Z,49.20
2022-10-26T05:12:34.716Z,37.95
2022-10-26T05:15:03.911Z,43.42
2022-10-26T05:17:32.760Z,41.40
2022-10-26T05:20:00.495Z,43.17
2022-10-26T05:22:27.407Z,40.70
2022-10-26T05:24:53.876Z,45.28
2022-10-26T05:27:20.692Z,40.88
2022-10-26T05:29:47.072Z,41.53
2022-10-26T05:32:13.421Z,48.67
2022-10-26T05:34:41.534Z,43.97
2022-10-26T05:37:08.038Z,48.45
2022-10-26T05:39:37.526Z,47.67
2022-10-26T05:42:03.930Z,44.42
2022-10-26T05:44:30.288Z,45.28
2022-10-26T05:46:56.619Z,49.13
2022-10-26T05:49:23.128Z,46.20
2022-10-26T05:51:49.739Z,47.75
2022-10-26T05:54:16.139Z,53.47
2022-10-26T05:56:42.852Z,52.47
2022-10-26T05:59:14.833Z,49.20
2022-10-26T06:01:57.344Z,53.50
2022-10-26T06:04:38.471Z,54.80
2022-10-26T06:07:11.744Z,51.95
2022-10-26T06:09:39.350Z,48.78
2022-10-26T06:12:07.511Z,48.50
2022-10-26T06:14:35.212Z,48.78
2022-10-26T06:17:09.504Z,46.85
2022-10-26T06:20:00.386Z,51.58
2022-10-26T06:22:52.129Z,51.38
2022-10-26T06:25:33.905Z,58.00
2022-10-26T06:28:11.594Z,56.38
2022-10-26T06:30:40.380Z,54.85
2022-10-26T06:33:18.421Z,54.65
2022-10-26T06:36:08.179Z,56.28
2022-10-26T06:38:36.464Z,53.17
2022-10-26T06:41:03.718Z,60.10
2022-10-26T06:43:34.648Z,59.05
2022-10-26T06:46:29.981Z,61.20
2022-10-26T06:49:22.197Z,57.47
2022-10-26T06:51:58.583Z,66.07
2022-10-26T06:54:49.555Z,60.63
2022-10-26T06:57:18.765Z,70.65
2022-10-26T06:59:54.379Z,66.93
2022-10-26T07:02:21.096Z,69.45
2022-10-26T07:04:47.803Z,69.45
2022-10-26T07:07:22.121Z,72.95
2022-10-26T07:09:49.396Z,70.32
2022-10-26T07:12:15.906Z,73.25
2022-10-26T07:14:42.320Z,73.72
2022-10-26T07:17:10.132Z,80.88
2022-10-26T07:19:36.562Z,99.65
2022-10-26T07:22:03.195Z,88.88
2022-10-26T07:24:30.282Z,93.43
2022-10-26T07:26:57.955Z,91.97
2022-10-26T07:29:25.959Z,93.55
2022-10-26T07:34:20.339Z,86.57
2022-10-26T07:36:46.837Z,86.90
2022-10-26T07:39:13.202Z,89.70
2022-10-26T07:41:39.574Z,103.72
2022-10-26T07:44:05.933Z,89.50
2022-10-26T07:46:32.307Z,83.35
2022-10-26T07:48:58.753Z,76.68
2022-10-26T07:51:25.740Z,84.15
2022-10-26T07:53:52.131Z,85.80
2022-10-26T07:56:18.662Z,74.18
2022-10-26T07:58:45.178Z,63.10
2022-10-26T08:01:14.294Z,65.15
2022-10-26T08:03:41.717Z,78.88
2022-10-26T08:06:09.493Z,62.42
2022-10-26T08:08:36.471Z,55.13
2022-10-26T08:11:03.783Z,61.30
2022-10-26T08:13:30.381Z,57.03
2022-10-26T08:16:01.497Z,57.50
2022-10-26T08:18:28.411Z,68.60
2022-10-26T08:21:01.796Z,58.15
2022-10-26T08:23:37.872Z,56.40
2022-10-26T08:26:05.033Z,63.47
2022-10-26T08:28:31.542Z,54.17
2022-10-26T08:30:58.140Z,48.97
2022-10-26T08:33:25.435Z,52.22
2022-10-26T08:35:59.368Z,52.08
2022-10-26T08:38:26.183Z,49.75
2022-10-26T08:40:53.835Z,41.90
2022-10-26T08:43:29.338Z,45.03
2022-10-26T08:46:11.203Z,43.58
2022-10-26T08:48:47.479Z,44.75
2022-10-26T08:51:35.291Z,38.33
2022-10-26T08:54:18.006Z,37.00
2022-10-26T08:56:50.895Z,37.78
2022-10-26T08:59:37.356Z,37.13
2022-10-26T09:02:04.004Z,30.77
2022-10-26T09:04:32.237Z,32.97
2022-10-26T09:07:22.735Z,33.95
2022-10-26T09:10:20.164Z,31.70
2022-10-26T09:13:00.217Z,30.77
2022-10-26T09:15:32.620Z,27.55
2022-10-26T09:18:27.131Z,30.13
2022-10-26T09:20:56.346Z,30.33
2022-10-26T09:23:59.304Z,23.55
2022-10-26T09:26:41.941Z,23.48
2022-10-26T09:29:13.387Z,22.33
2022-10-26T09:31:43.505Z,20.67
2022-10-26T09:34:31.528Z,26.23
2022-10-26T09:36:58.187Z,21.13
2022-10-26T09:39:30.099Z,20.50
2022-10-26T09:42:01.137Z,23.77
2022-10-26T09:44:39.366Z,19.13
2022-10-26T09:47:38.337Z,18.60
2022-10-26T09:50:26.078Z,20.90
2022-10-26T09:52:52.815Z,17.67
2022-10-26T09:55:22.876Z,17.83
2022-10-26T09:57:56.068Z,17.27
2022-10-26T10:00:25.148Z,19.35
2022-10-26T10:02:56.698Z,17.38
2022-10-26T10:05:52.131Z,16.83
2022-10-26T10:08:23.293Z,15.60
2022-10-26T10:11:03.668Z,17.00
2022-10-26T10:13:32.870Z,15.98
2022-10-26T10:16:06.032Z,15.63
2022-10-26T10:18:33.777Z,16.05
2022-10-26T10:21:00.833Z,18.23
2022-10-26T10:23:54.358Z,17.52
2022-10-26T10:26:20.763Z,18.05
2022-10-26T10:29:01.049Z,18.65
2022-10-26T10:31:32.526Z,15.98
2022-10-26T10:33:59.410Z,18.23
2022-10-26T10:36:31.656Z,15.52
2022-10-26T10:38:58.111Z,15.40
2022-10-26T10:41:36.637Z,14.90
2022-10-26T10:44:18.045Z,17.48
2022-10-26T10:46:44.510Z,15.73
2022-10-26T10:49:24.496Z,14.13
2022-10-26T10:54:37.806Z,15.77
2022-10-26T10:57:19.805Z,17.30
2022-10-26T10:59:55.511Z,13.90
2022-10-26T11:02:51.457Z,13.90
2022-10-26T11:05:48.831Z,14.07
2022-10-26T11:08:35.458Z,14.85
2022-10-26T11:11:10.947Z,15.30
2022-10-26T11:13:49.716Z,14.57
2022-10-26T11:16:30.955Z,13.63
2022-10-26T11:19:16.117Z,15.80
2022-10-26T11:21:45.584Z,21.10
2022-10-26T11:24:21.459Z,13.27
2022-10-26T11:26:53.928Z,12.90
2022-10-26T11:29:27.937Z,12.63
2022-10-26T11:32:01.701Z,13.15
2022-10-26T11:34:59.183Z,12.70
2022-10-26T11:37:32.530Z,13.40
2022-10-26T11:40:42.906Z,14.70
2022-10-26T11:43:18.762Z,12.68
2022-10-26T11:45:46.881Z,14.48
2022-10-26T11:48:20.128Z,12.98
2022-10-26T11:50:52.332Z,13.48
2022-10-26T11:53:23.224Z,16.13
2022-10-26T11:55:53.249Z,15.20
2022-10-26T11:58:24.055Z,13.05
2022-10-26T12:01:13.892Z,13.10
2022-10-26T12:06:15.179Z,13.52
2022-10-26T12:08:50.939Z,15.13
2022-10-26T12:11:38.936Z,16.42
2022-10-26T12:14:12.759Z,14.40
2022-10-26T12:16:48.643Z,15.88
2022-10-26T12:19:44.559Z,12.98
2022-10-26T12:22:14.398Z,14.48
2022-10-26T12:24:45.612Z,14.40
2022-10-26T12:27:44.413Z,12.75
2022-10-26T12:30:18.712Z,15.07
2022-10-26T12:32:45.008Z,16.55
2022-10-26T12:35:41.903Z,16.10
2022-10-26T12:38:31.672Z,12.73
2022-10-26T12:41:09.913Z,16.17
2022-10-26T12:43:40.849Z,12.68
2022-10-26T12:46:13.510Z,12.75
2022-10-26T12:48:50.985Z,15.60
2022-10-26T12:51:23.068Z,13.45
2022-10-26T12:54:04.678Z,15.13
2022-10-26T12:56:41.958Z,15.98
2022-10-26T12:59:26.938Z,14.10
2022-10-26T13:02:02.208Z,14.63
2022-10-26T13:04:53.308Z,11.43
2022-10-26T13:07:25.086Z,15.50
2022-10-26T13:10:02.706Z,13.77
2022-10-26T13:12:38.192Z,15.15
2022-10-26T13:15:35.388Z,11.60
2022-10-26T13:18:09.778Z,13.20
2022-10-26T13:20:52.867Z,16.77
2022-10-26T13:23:26.569Z,12.70
2022-10-26T13:26:02.353Z,11.05
2022-10-26T13:28:37.742Z,11.70
2022-10-26T13:31:35.114Z,10.80
2022-10-26T13:34:20.856Z,14.60
2022-10-26T13:37:08.323Z,13.18
2022-10-26T13:39:41.900Z,10.73
2022-10-26T13:42:15.805Z,14.85
2022-10-26T13:44:51.204Z,12.15
2022-10-26T13:47:27.476Z,14.25
2022-10-26T13:49:58.762Z,13.38
2022-10-26T13:52:53.579Z,11.45
2022-10-26T13:55:31.220Z,11.68
2022-10-26T13:58:22.394Z,13.75
2022-10-26T14:01:16.422Z,12.55
2022-10-26T14:03:43.138Z,13.25
2022-10-26T14:06:27.619Z,11.88
2022-10-26T14:08:57.619Z,18.35
2022-10-26T14:14:00.008Z,12.65
2022-10-26T14:16:30.278Z,14.90
2022-10-26T14:18:57.242Z,12.30
2022-10-26T14:21:23.823Z,12.50
2022-10-26T14:23:56.094Z,17.05
2022-10-26T14:26:25.635Z,11.05
2022-10-26T14:28:55.083Z,12.18
2022-10-26T14:31:32.724Z,15.55
2022-10-26T14:34:01.559Z,18.85
2022-10-26T14:36:37.429Z,16.63
2022-10-26T14:39:09.380Z,12.23
2022-10-26T14:41:36.335Z,13.32
2022-10-26T14:44:04.807Z,13.60
2022-10-26T14:46:35.275Z,15.07
2022-10-26T14:49:03.262Z,12.85
2022-10-26T14:51:34.921Z,15.50
2022-10-26T14:54:03.272Z,10.35
2022-10-26T14:56:35.390Z,10.80
2022-10-26T14:59:23.234Z,11.45
2022-10-26T15:01:53.438Z,12.75
2022-10-26T15:04:33.891Z,12.05
2022-10-26T15:07:12.351Z,11.70
2022-10-26T15:09:42.890Z,12.55
2022-10-26T15:12:34.679Z,11.05
2022-10-26T15:17:54.475Z,16.95
2022-10-26T15:20:23.362Z,18.40
2022-10-26T15:23:01.859Z,13.35
2022-10-26T15:25:30.542Z,12.38
2022-10-26T15:28:23.741Z,16.33
2022-10-26T15:31:24.491Z,10.43
2022-10-26T15:33:50.773Z,12.65
2022-10-26T15:36:20.731Z,11.27
2022-10-26T15:38:51.859Z,19.35
2022-10-26T15:41:21.394Z,17.33
2022-10-26T15:43:52.320Z,10.00
2022-10-26T15:46:22.895Z,12.00
2022-10-26T15:48:55.448Z,11.30
2022-10-26T15:51:21.936Z,10.68
2022-10-26T15:53:51.015Z,11.73
2022-10-26T15:56:20.042Z,13.02
2022-10-26T15:58:47.094Z,10.75
2022-10-26T16:01:17.029Z,13.75
2022-10-26T16:03:43.866Z,13.05
2022-10-26T16:06:27.476Z,14.65
2022-10-26T16:08:56.912Z,14.02
2022-10-26T16:11:23.426Z,15.02
2022-10-26T16:16:18.682Z,11.77
2022-10-26T16:18:46.167Z,11.70
2022-10-26T16:21:14.663Z,13.32
2022-10-26T16:23:41.715Z,12.88
2022-10-26T16:26:08.518Z,13.38
2022-10-26T16:28:36.156Z,12.23
2022-10-26T16:31:05.510Z,16.00
2022-10-26T16:33:32.001Z,13.87
2022-10-26T16:35:59.637Z,13.20
2022-10-26T16:38:27.428Z,14.20
2022-10-26T16:41:04.694Z,11.52
2022-10-26T16:43:32.745Z,10.57
2022-10-26T16:46:00.183Z,11.80
2022-10-26T16:48:26.701Z,12.32
2022-10-26T16:50:56.148Z,16.42
2022-10-26T16:53:23.623Z,14.70
2022-10-26T16:55:50.032Z,18.23
2022-10-26T16:58:16.516Z,15.20
2022-10-26T17:00:42.897Z,11.57
2022-10-26T17:03:09.318Z,14.18
2022-10-26T17:05:35.662Z,17.30
2022-10-26T17:08:02.090Z,16.20
2022-10-26T17:10:28.649Z,10.90
2022-10-26T17:12:55.540Z,12.75
2022-10-26T17:15:23.280Z,13.80
2022-10-26T17:17:51.648Z,13.15
2022-10-26T17:20:18.092Z,12.85
2022-10-26T17:22:44.452Z,14.73
2022-10-26T17:25:10.817Z,20.10
2022-10-26T17:27:37.191Z,14.10
2022-10-26T17:30:03.797Z,15.43
2022-10-26T17:32:30.734Z,11.80
2022-10-26T17:34:57.110Z,15.63
2022-10-26T17:37:23.559Z,19.25
2022-10-26T17:39:49.950Z,13.88
2022-10-26T17:42:16.317Z,14.35
2022-10-26T17:44:42.667Z,13.80
2022-10-26T17:47:09.830Z,17.17
2022-10-26T17:49:36.548Z,14.57
2022-10-26T17:52:03.736Z,13.00
2022-10-26T17:54:30.090Z,17.48
2022-10-26T17:56:56.477Z,12.68
2022-10-26T17:59:22.839Z,12.90
2022-10-26T18:01:49.586Z,13.05
2022-10-26T18:04:16.012Z,16.45
2022-10-26T18:06:42.378Z,14.95
2022-10-26T18:09:08.793Z,13.00
2022-10-26T18:11:35.182Z,14.23
2022-10-26T18:14:01.540Z,15.80
2022-10-26T18:16:28.807Z,18.95
2022-10-26T18:19:01.745Z,17.33
2022-10-26T18:21:30.355Z,12.95
2022-10-26T18:23:56.748Z,11.93
2022-10-26T18:26:26.078Z,16.65
2022-10-26T18:28:52.967Z,13.90
2022-10-26T18:31:21.524Z,16.00
2022-10-26T18:33:48.219Z,12.18
2022-10-26T18:36:17.409Z,12.65
2022-10-26T18:38:49.101Z,16.35
2022-10-26T18:41:17.210Z,13.35
2022-10-26T18:43:45.735Z,13.10
2022-10-26T18:46:24.287Z,14.98
2022-10-26T18:48:51.971Z,20.33
2022-10-26T18:51:20.605Z,15.52
2022-10-26T18:53:48.231Z,12.65
2022-10-26T18:56:17.569Z,16.40
2022-10-26T18:58:46.668Z,15.90
2022-10-26T19:01:19.717Z,16.67
2022-10-26T19:03:47.380Z,13.75
2022-10-26T19:06:22.455Z,13.10
2022-10-26T19:08:48.854Z,15.80
2022-10-26T19:11:17.498Z,12.35
2022-10-26T19:13:44.261Z,15.55
2022-10-26T19:16:17.509Z,13.68
2022-10-26T19:18:48.899Z,22.00
2022-10-26T19:21:19.215Z,17.40
2022-10-26T19:26:16.266Z,13.25
2022-10-26T19:28:42.995Z,14.65
2022-10-26T19:31:11.764Z,13.00
2022-10-26T19:33:38.351Z,18.85
2022-10-26T19:36:07.697Z,14.73
2022-10-26T19:38:34.596Z,14.80
2022-10-26T19:41:06.084Z,15.27
2022-10-26T19:43:34.663Z,16.17
2022-10-26T19:46:12.855Z,17.83
2022-10-26T19:48:40.136Z,17.77
2022-10-26T19:51:07.411Z,16.48
2022-10-26T19:53:34.483Z,14.68
2022-10-26T19:56:01.780Z,19.27
2022-10-26T19:58:31.018Z,13.90
2022-10-26T20:01:01.836Z,14.77
2022-10-26T20:03:29.310Z,15.23
2022-10-26T20:06:01.146Z,15.75
2022-10-26T20:08:28.403Z,18.25
2022-10-26T20:10:56.779Z,17.70
2022-10-26T20:13:26.147Z,19.08
2022-10-26T20:15:53.065Z,19.63
2022-10-26T20:18:20.206Z,19.92
2022-10-26T20:20:46.672Z,17.92
2022-10-26T20:23:13.086Z,19.92
2022-10-26T20:25:45.438Z,18.67
2022-10-26T20:28:11.879Z,17.13
2022-10-26T20:30:38.463Z,21.50
2022-10-26T20:33:05.595Z,17.75
2022-10-26T20:35:32.834Z,18.33
2022-10-26T20:38:00.105Z,16.02
2022-10-26T20:40:27.773Z,17.35
2022-10-26T20:42:54.964Z,19.35
2022-10-26T20:45:27.514Z,19.85
2022-10-26T20:47:54.596Z,16.95
2022-10-26T20:50:26.745Z,16.02
2022-10-26T20:53:04.230Z,19.02
2022-10-26T20:55:50.905Z,23.85
2022-10-26T20:58:17.391Z,16.85
2022-10-26T21:01:27.183Z,17.88
2022-10-26T21:03:55.249Z,15.07
2022-10-26T21:06:22.169Z,20.00
2022-10-26T21:08:49.972Z,18.23
2022-10-26T21:11:17.175Z,17.65
2022-10-26T21:13:44.546Z,17.58
2022-10-26T21:16:11.094Z,21.02
2022-10-26T21:18:37.513Z,19.20
2022-10-26T21:21:04.012Z,19.88
2022-10-26T21:23:34.922Z,20.05
2022-10-26T21:26:01.594Z,26.20
2022-10-26T21:28:34.544Z,24.17
2022-10-26T21:31:06.077Z,21.65
2022-10-26T21:33:32.737Z,21.27
2022-10-26T21:36:00.586Z,20.65
2022-10-26T21:38:28.489Z,21.63
2022-10-26T21:41:06.306Z,19.63
2022-10-26T21:43:33.867Z,20.27
2022-10-26T21:46:04.537Z,25.58
2022-10-26T21:48:32.017Z,19.63
2022-10-26T21:51:00.503Z,25.83
2022-10-26T21:53:27.177Z,22.10
2022-10-26T21:56:09.661Z,20.55
2022-10-26T21:58:36.593Z,23.67
2022-10-26T22:01:07.953Z,23.17
2022-10-26T22:03:37.713Z,23.27
2022-10-26T22:06:05.347Z,25.63
2022-10-26T22:08:31.823Z,26.83
2022-10-26T22:10:58.789Z,30.83
2022-10-26T22:13:25.298Z,22.33
2022-10-26T22:16:11.849Z,23.27
2022-10-26T22:18:40.786Z,23.92
2022-10-26T22:21:08.240Z,31.92
2022-10-26T22:23:39.718Z,28.83
2022-10-26T22:26:09.511Z,37.58
2022-10-26T22:28:41.534Z,25.92
2022-10-26T22:31:15.251Z,33.47
2022-10-26T22:33:42.228Z,30.80
2022-10-26T22:36:11.059Z,26.75
2022-10-26T22:38:37.566Z,35.30
2022-10-26T22:41:04.100Z,27.27
2022-10-26T22:43:30.598Z,27.48
2022-10-26T22:46:05.710Z,29.08
2022-10-26T22:48:33.620Z,28.45
2022-10-26T22:51:11.628Z,34.47
2022-10-26T22:53:38.309Z,26.65
2022-10-26T22:56:07.155Z,31.58
2022-10-26T22:58:34.860Z,32.00
2022-10-26T23:01:09.742Z,31.10
2022-10-26T23:03:36.446Z,29.63
2022-10-26T23:06:04.285Z,30.65
2022-10-26T23:08:30.779Z,31.23
2022-10-26T23:11:02.153Z,32.92
2022-10-26T23:13:29.432Z,30.85
2022-10-26T23:15:56.127Z,37.78
2022-10-26T23:18:22.743Z,33.08
2022-10-26T23:20:50.569Z,25.90
2022-10-26T23:23:17.609Z,29.85
2022-10-26T23:25:44.355Z,30.05
2022-10-26T23:28:11.145Z,29.00
2022-10-26T23:30:37.837Z,35.28
2022-10-26T23:33:04.193Z,26.52
2022-10-26T23:35:30.613Z,31.67
2022-10-26T23:37:58.640Z,24.58
2022-10-26T23:40:25.846Z,35.17
2022-10-26T23:42:52.534Z,29.80
2022-10-26T23:45:19.069Z,35.70
2022-10-26T23:47:45.405Z,30.70
2022-10-26T23:50:12.571Z,32.47
2022-10-26T23:52:38.977Z,32.67
2022-10-26T23:55:05.985Z,30.05
2022-10-26T23:57:32.547Z,28.98
2022-10-26T23:59:58.909Z,29.35
